Time;durP1;ratioP1;P1;durP2;ratioP2;P2;SDS_P1;SDS_P2;PMS_P1;PMS_P2;Temp;Humidity;BMP_temperature;BMP_pressure;BME280_temperature;BME280_humidity;BME280_pressure;Samples;Min_cycle;Max_cycle;Signal;HPM_P1;HPM_P2
2021/09/09 00:02:11;;;;;;;8.27;5.07;;;;;;;;;;5034541;28;20061;-83
2021/09/09 00:04:37;;;;;;;6.10;4.70;;;;;;;;;;5027951;28;20061;-83
2021/09/09 00:07:04;;;;;;;7.03;5.25;;;;;;;;;;5020713;28;20147;-82
2021/09/09 00:09:30;;;;;;;7.88;5.53;;;;;;;;;;5020939;28;20069;-83
2021/09/09 00:11:57;;;;;;;6.70;4.82;;;;;;;;;;5021230;28;20462;-82
2021/09/09 00:14:23;;;;;;;6.30;4.82;;;;;;;;;;5012371;28;20058;-83
2021/09/09 00:16:50;;;;;;;8.38;4.78;;;;;;;;;;5022892;28;20087;-83
2021/09/09 00:19:16;;;;;;;7.20;5.05;;;;;;;;;;5030849;28;20060;-83
2021/09/09 00:21:43;;;;;;;7.03;5.13;;;;;;;;;;5028872;28;20064;-80
2021/09/09 00:24:09;;;;;;;7.30;4.93;;;;;;;;;;5019663;28;20061;-81
2021/09/09 00:26:35;;;;;;;7.63;5.43;;;;;;;;;;5021662;28;20077;-81
2021/09/09 00:29:02;;;;;;;7.32;4.80;;;;;;;;;;5017529;28;20057;-81
2021/09/09 00:31:28;;;;;;;6.97;5.32;;;;;;;;;;5012767;28;20061;-83
2021/09/09 00:33:55;;;;;;;6.93;4.85;;;;;;;;;;5015167;28;20053;-82
2021/09/09 00:36:21;;;;;;;7.22;5.40;;;;;;;;;;5019423;28;20127;-83
2021/09/09 00:38:47;;;;;;;6.65;4.75;;;;;;;;;;5026658;28;20057;-83
2021/09/09 00:41:14;;;;;;;7.18;5.18;;;;;;;;;;5029979;28;20070;-83
2021/09/09 00:43:40;;;;;;;6.80;5.13;;;;;;;;;;5024269;28;20054;-82
2021/09/09 00:46:07;;;;;;;6.30;4.68;;;;;;;;;;5021121;28;20069;-82
2021/09/09 00:48:34;;;;;;;7.13;4.95;;;;;;;;;;5019165;28;20061;-82
2021/09/09 00:51:00;;;;;;;7.00;4.90;;;;;;;;;;5021064;28;20057;-81
2021/09/09 00:53:27;;;;;;;7.10;5.03;;;;;;;;;;5017721;28;20486;-82
2021/09/09 00:55:53;;;;;;;6.70;4.60;;;;;;;;;;5022177;28;20494;-81
2021/09/09 00:58:20;;;;;;;6.45;5.10;;;;;;;;;;5011998;28;20510;-82
2021/09/09 01:00:47;;;;;;;7.60;5.38;;;;;;;;;;5023790;28;20548;-81
2021/09/09 01:03:13;;;;;;;7.07;4.75;;;;;;;;;;5033836;28;20061;-83
2021/09/09 01:05:40;;;;;;;6.18;4.43;;;;;;;;;;5014830;28;20552;-84
2021/09/09 01:08:06;;;;;;;6.93;4.78;;;;;;;;;;5020982;28;20064;-84
2021/09/09 01:10:34;;;;;;;7.88;4.85;;;;;;;;;;5022439;28;20100;-84
2021/09/09 01:13:01;;;;;;;6.53;4.38;;;;;;;;;;5025637;28;20049;-82
2021/09/09 01:15:27;;;;;;;7.53;4.80;;;;;;;;;;5024188;28;20636;-83
2021/09/09 01:17:54;;;;;;;7.13;4.95;;;;;;;;;;5023613;28;20057;-84
2021/09/09 01:20:20;;;;;;;6.20;4.65;;;;;;;;;;5023163;28;20049;-84
2021/09/09 01:22:46;;;;;;;7.63;5.22;;;;;;;;;;5022261;28;20057;-84
2021/09/09 01:25:13;;;;;;;6.97;4.75;;;;;;;;;;5023380;28;20101;-85
2021/09/09 01:27:39;;;;;;;6.38;4.60;;;;;;;;;;5027592;28;20048;-83
2021/09/09 01:30:06;;;;;;;6.68;5.05;;;;;;;;;;5032558;28;20037;-84
2021/09/09 01:32:32;;;;;;;6.72;4.68;;;;;;;;;;5029234;28;20063;-82
2021/09/09 01:34:59;;;;;;;7.00;4.57;;;;;;;;;;5025029;28;20061;-84
2021/09/09 01:37:25;;;;;;;6.43;4.68;;;;;;;;;;5014307;28;20053;-83
2021/09/09 01:39:52;;;;;;;6.78;5.05;;;;;;;;;;5020771;28;20450;-83
2021/09/09 01:42:19;;;;;;;7.22;4.93;;;;;;;;;;5013894;28;20484;-84
2021/09/09 01:44:46;;;;;;;6.20;4.45;;;;;;;;;;5024703;28;20045;-84
2021/09/09 01:47:12;;;;;;;6.50;4.70;;;;;;;;;;5022631;28;20049;-83
2021/09/09 01:49:38;;;;;;;6.68;4.65;;;;;;;;;;5021500;28;20048;-84
2021/09/09 01:52:05;;;;;;;5.93;4.50;;;;;;;;;;5019956;28;20125;-84
2021/09/09 01:54:31;;;;;;;7.75;5.00;;;;;;;;;;5029797;28;20069;-84
2021/09/09 01:56:58;;;;;;;6.70;4.93;;;;;;;;;;5016984;28;20053;-83
2021/09/09 01:59:24;;;;;;;7.05;4.50;;;;;;;;;;5027193;28;20545;-83
2021/09/09 02:01:50;;;;;;;6.47;4.80;;;;;;;;;;5025604;28;20057;-83
2021/09/09 02:04:17;;;;;;;6.97;4.60;;;;;;;;;;5017476;28;20061;-84
2021/09/09 02:06:43;;;;;;;6.55;4.93;;;;;;;;;;5019125;28;21596;-82
2021/09/09 02:09:09;;;;;;;5.68;4.28;;;;;;;;;;5021590;28;20095;-82
2021/09/09 02:11:36;;;;;;;6.38;4.82;;;;;;;;;;5016226;28;20077;-85
2021/09/09 02:14:02;;;;;;;6.65;4.65;;;;;;;;;;5018078;28;20061;-84
2021/09/09 02:16:29;;;;;;;6.45;4.65;;;;;;;;;;5015561;28;20269;-84
2021/09/09 02:18:56;;;;;;;8.27;4.55;;;;;;;;;;5021311;28;20065;-84
2021/09/09 02:21:22;;;;;;;6.50;4.57;;;;;;;;;;5016893;28;20072;-85
2021/09/09 02:23:48;;;;;;;6.40;4.20;;;;;;;;;;5027023;28;20129;-85
2021/09/09 02:26:15;;;;;;;7.90;4.85;;;;;;;;;;5024932;28;20111;-84
2021/09/09 02:28:41;;;;;;;6.60;4.70;;;;;;;;;;5034023;28;20060;-85
2021/09/09 02:31:07;;;;;;;6.05;4.38;;;;;;;;;;5026619;28;20062;-84
2021/09/09 02:33:34;;;;;;;10.90;4.53;;;;;;;;;;5023944;28;20125;-83
2021/09/09 02:36:00;;;;;;;6.85;4.55;;;;;;;;;;5025399;28;20057;-83
2021/09/09 02:38:27;;;;;;;7.40;5.03;;;;;;;;;;5009935;28;20660;-84
2021/09/09 02:40:53;;;;;;;7.32;5.13;;;;;;;;;;5016599;28;20077;-84
2021/09/09 02:43:19;;;;;;;6.68;4.82;;;;;;;;;;5016287;28;20069;-83
2021/09/09 02:45:46;;;;;;;4.88;3.97;;;;;;;;;;5020609;28;20498;-84
2021/09/09 02:48:12;;;;;;;7.60;5.00;;;;;;;;;;5025001;28;20103;-83
2021/09/09 02:50:39;;;;;;;7.55;4.80;;;;;;;;;;5026402;28;20093;-83
2021/09/09 02:53:05;;;;;;;5.35;4.25;;;;;;;;;;5031366;28;20147;-83
2021/09/09 02:55:32;;;;;;;6.38;4.38;;;;;;;;;;5025703;28;20663;-85
2021/09/09 02:57:58;;;;;;;7.93;4.65;;;;;;;;;;5028587;28;20481;-85
2021/09/09 03:00:25;;;;;;;6.75;4.78;;;;;;;;;;5028346;28;20080;-84
2021/09/09 03:02:51;;;;;;;5.90;4.32;;;;;;;;;;5025012;28;20049;-85
2021/09/09 03:05:17;;;;;;;5.93;4.43;;;;;;;;;;5027809;28;20091;-84
2021/09/09 03:07:44;;;;;;;6.10;4.53;;;;;;;;;;5026091;28;20077;-83
2021/09/09 03:10:11;;;;;;;5.80;4.20;;;;;;;;;;5012684;28;20054;-83
2021/09/09 03:12:37;;;;;;;6.95;4.88;;;;;;;;;;5020599;28;20072;-83
2021/09/09 03:15:04;;;;;;;6.70;4.80;;;;;;;;;;5026276;28;20466;-84
2021/09/09 03:17:30;;;;;;;6.65;4.05;;;;;;;;;;5019740;28;20069;-84
2021/09/09 03:19:57;;;;;;;6.00;4.45;;;;;;;;;;5031891;28;20055;-85
2021/09/09 03:22:23;;;;;;;6.20;4.82;;;;;;;;;;5021563;28;20061;-81
2021/09/09 03:24:49;;;;;;;6.55;4.45;;;;;;;;;;5016742;28;20064;-82
2021/09/09 03:27:16;;;;;;;6.85;4.35;;;;;;;;;;5017997;28;20593;-82
2021/09/09 03:29:42;;;;;;;5.47;4.18;;;;;;;;;;5026633;28;20049;-79
2021/09/09 03:32:09;;;;;;;5.68;4.30;;;;;;;;;;5025981;28;20076;-78
2021/09/09 03:34:35;;;;;;;6.55;4.50;;;;;;;;;;5019684;28;20099;-79
2021/09/09 03:37:01;;;;;;;5.90;4.45;;;;;;;;;;5017370;28;20053;-78
2021/09/09 03:39:28;;;;;;;6.32;4.25;;;;;;;;;;5018320;28;20068;-78
2021/09/09 03:41:54;;;;;;;6.28;4.10;;;;;;;;;;5015391;28;20510;-80
2021/09/09 03:44:21;;;;;;;5.18;4.15;;;;;;;;;;5024284;28;20087;-79
2021/09/09 03:46:47;;;;;;;6.03;4.35;;;;;;;;;;5026073;28;20566;-78
2021/09/09 03:49:13;;;;;;;7.05;4.63;;;;;;;;;;5025387;28;20079;-80
2021/09/09 03:51:40;;;;;;;6.40;4.40;;;;;;;;;;5014046;28;20506;-79
2021/09/09 03:54:06;;;;;;;7.07;4.32;;;;;;;;;;5013127;28;20062;-79
2021/09/09 03:56:32;;;;;;;6.28;4.55;;;;;;;;;;5022493;28;20049;-79
2021/09/09 03:58:59;;;;;;;6.43;4.40;;;;;;;;;;5021802;28;20681;-79
2021/09/09 04:01:25;;;;;;;6.00;4.43;;;;;;;;;;5017421;28;20077;-79
2021/09/09 04:03:52;;;;;;;5.40;4.28;;;;;;;;;;5017521;28;20064;-81
2021/09/09 04:06:21;;;;;;;7.07;4.80;;;;;;;;;;5017491;28;20490;-80
2021/09/09 04:08:47;;;;;;;7.70;4.65;;;;;;;;;;5022888;28;20064;-80
2021/09/09 04:11:13;;;;;;;4.88;3.80;;;;;;;;;;5029915;28;20057;-81
2021/09/09 04:13:40;;;;;;;5.55;4.07;;;;;;;;;;5019567;28;20065;-82
2021/09/09 04:16:06;;;;;;;5.63;4.30;;;;;;;;;;5011314;28;20033;-80
2021/09/09 04:18:33;;;;;;;6.22;4.20;;;;;;;;;;5023039;28;20060;-81
2021/09/09 04:20:59;;;;;;;5.68;4.22;;;;;;;;;;5019242;28;20072;-81
2021/09/09 04:23:26;;;;;;;6.10;4.57;;;;;;;;;;5016160;28;20540;-81
2021/09/09 04:25:52;;;;;;;5.68;4.50;;;;;;;;;;5021280;28;20094;-82
2021/09/09 04:28:19;;;;;;;6.15;4.40;;;;;;;;;;5018986;28;20068;-80
2021/09/09 04:30:48;;;;;;;5.72;4.20;;;;;;;;;;5016319;28;20045;-81
2021/09/09 04:33:14;;;;;;;6.75;4.43;;;;;;;;;;5017415;28;20065;-80
2021/09/09 04:35:41;;;;;;;7.13;4.65;;;;;;;;;;5017194;28;20584;-81
2021/09/09 04:38:07;;;;;;;5.57;4.18;;;;;;;;;;5021219;28;20064;-78
2021/09/09 04:40:34;;;;;;;5.40;4.15;;;;;;;;;;5014064;28;20062;-80
2021/09/09 04:43:01;;;;;;;6.53;4.43;;;;;;;;;;5017336;28;20076;-79
2021/09/09 04:45:29;;;;;;;6.00;4.18;;;;;;;;;;5013905;28;20053;-78
2021/09/09 04:47:56;;;;;;;6.50;4.60;;;;;;;;;;5015275;28;20064;-80
2021/09/09 04:50:22;;;;;;;6.38;4.60;;;;;;;;;;5020846;28;20070;-78
2021/09/09 04:52:49;;;;;;;6.25;4.32;;;;;;;;;;5015540;28;20060;-78
2021/09/09 04:55:15;;;;;;;5.28;3.83;;;;;;;;;;5013787;28;20060;-80
2021/09/09 04:57:41;;;;;;;6.05;4.22;;;;;;;;;;5015785;28;20049;-78
2021/09/09 05:00:08;;;;;;;6.28;4.20;;;;;;;;;;5024669;28;20673;-80
2021/09/09 05:02:34;;;;;;;6.22;3.95;;;;;;;;;;5015358;28;20065;-79
2021/09/09 05:05:01;;;;;;;5.53;4.32;;;;;;;;;;5020390;28;20096;-80
2021/09/09 05:07:27;;;;;;;7.25;4.60;;;;;;;;;;5013975;28;20561;-79
2021/09/09 05:09:54;;;;;;;5.82;4.07;;;;;;;;;;5022822;28;20054;-79
2021/09/09 05:12:20;;;;;;;5.38;4.30;;;;;;;;;;5015628;28;20061;-79
2021/09/09 05:14:46;;;;;;;6.65;4.60;;;;;;;;;;5017536;28;20488;-78
2021/09/09 05:17:13;;;;;;;5.57;3.75;;;;;;;;;;5014392;28;20042;-79
2021/09/09 05:19:39;;;;;;;6.00;4.15;;;;;;;;;;5013224;28;20076;-79
2021/09/09 05:22:06;;;;;;;5.88;4.53;;;;;;;;;;5014720;28;20461;-79
2021/09/09 05:24:32;;;;;;;5.80;4.05;;;;;;;;;;5017745;28;20034;-80
2021/09/09 05:26:58;;;;;;;5.78;4.00;;;;;;;;;;5013823;28;20521;-79
2021/09/09 05:29:25;;;;;;;6.60;4.05;;;;;;;;;;5017724;28;20146;-80
2021/09/09 05:31:51;;;;;;;6.20;3.92;;;;;;;;;;5015986;28;20496;-78
2021/09/09 05:34:17;;;;;;;9.10;4.53;;;;;;;;;;5016888;28;20029;-80
2021/09/09 05:36:44;;;;;;;5.40;3.85;;;;;;;;;;4999043;28;20093;-80
2021/09/09 05:39:10;;;;;;;6.75;4.47;;;;;;;;;;5001451;28;20054;-80
2021/09/09 05:41:37;;;;;;;7.97;4.38;;;;;;;;;;5006987;28;20057;-80
2021/09/09 05:44:03;;;;;;;6.25;4.30;;;;;;;;;;5005830;28;20045;-80
2021/09/09 05:46:30;;;;;;;6.10;4.00;;;;;;;;;;5006875;28;20064;-80
2021/09/09 05:48:56;;;;;;;6.07;4.20;;;;;;;;;;5002445;28;20057;-80
2021/09/09 05:51:22;;;;;;;5.65;4.20;;;;;;;;;;5005612;28;20494;-78
2021/09/09 05:53:49;;;;;;;5.65;4.45;;;;;;;;;;5010929;28;20062;-78
2021/09/09 05:56:16;;;;;;;5.88;3.95;;;;;;;;;;4982974;28;20058;-79
2021/09/09 05:58:42;;;;;;;6.45;4.60;;;;;;;;;;5010545;28;20502;-79
2021/09/09 06:01:09;;;;;;;5.90;4.00;;;;;;;;;;5001048;28;20049;-78
2021/09/09 06:03:36;;;;;;;5.93;4.25;;;;;;;;;;5008663;28;20446;-78
2021/09/09 06:06:04;;;;;;;7.28;4.60;;;;;;;;;;4997059;28;20096;-78
2021/09/09 06:08:32;;;;;;;8.35;4.70;;;;;;;;;;5005317;28;20073;-78
2021/09/09 06:10:58;;;;;;;6.75;4.32;;;;;;;;;;4998820;28;20589;-78
2021/09/09 06:13:25;;;;;;;7.53;4.32;;;;;;;;;;4999888;28;20049;-78
2021/09/09 06:15:51;;;;;;;6.40;4.50;;;;;;;;;;4990199;28;20069;-79
2021/09/09 06:18:18;;;;;;;6.78;4.32;;;;;;;;;;4997521;28;20065;-79
2021/09/09 06:20:44;;;;;;;6.05;4.35;;;;;;;;;;4997829;28;20069;-78
2021/09/09 06:23:10;;;;;;;7.35;4.70;;;;;;;;;;5000502;28;20076;-78
2021/09/09 06:25:37;;;;;;;6.78;4.90;;;;;;;;;;5002660;28;20081;-79
2021/09/09 06:28:03;;;;;;;6.95;4.53;;;;;;;;;;5001992;28;20502;-78
2021/09/09 06:30:30;;;;;;;8.88;5.40;;;;;;;;;;5008448;28;20502;-78
2021/09/09 06:32:56;;;;;;;7.05;4.68;;;;;;;;;;5000340;28;20490;-78
2021/09/09 06:35:23;;;;;;;7.60;4.78;;;;;;;;;;4998797;28;20054;-78
2021/09/09 06:37:49;;;;;;;5.65;4.10;;;;;;;;;;5012307;28;20061;-78
2021/09/09 06:40:16;;;;;;;8.07;4.28;;;;;;;;;;5021752;28;20053;-77
2021/09/09 06:42:42;;;;;;;8.70;4.72;;;;;;;;;;5020741;28;20546;-78
2021/09/09 06:45:09;;;;;;;6.20;4.20;;;;;;;;;;5018799;28;20124;-77
2021/09/09 06:47:35;;;;;;;7.63;4.47;;;;;;;;;;5016341;28;20522;-77
2021/09/09 06:50:01;;;;;;;5.82;4.30;;;;;;;;;;5029037;28;20053;-79
2021/09/09 06:52:28;;;;;;;6.82;4.05;;;;;;;;;;5028271;28;20069;-78
2021/09/09 06:54:54;;;;;;;5.78;4.20;;;;;;;;;;5013983;28;20056;-77
2021/09/09 06:57:20;;;;;;;6.20;4.28;;;;;;;;;;5016816;28;20177;-78
2021/09/09 06:59:47;;;;;;;6.28;4.28;;;;;;;;;;5026657;28;20065;-78
2021/09/09 07:02:13;;;;;;;6.90;4.45;;;;;;;;;;5023193;28;20079;-78
2021/09/09 07:04:40;;;;;;;7.40;4.70;;;;;;;;;;5021824;28;20068;-78
2021/09/09 07:07:06;;;;;;;6.72;4.53;;;;;;;;;;5021874;28;20088;-78
2021/09/09 07:09:33;;;;;;;6.28;4.28;;;;;;;;;;5023310;28;20134;-79
2021/09/09 07:11:59;;;;;;;5.53;4.32;;;;;;;;;;5029601;28;20492;-79
2021/09/09 07:14:26;;;;;;;6.18;4.18;;;;;;;;;;5022034;28;20065;-79
2021/09/09 07:16:52;;;;;;;7.15;4.93;;;;;;;;;;5023102;28;20054;-79
2021/09/09 07:19:18;;;;;;;6.93;4.90;;;;;;;;;;5020827;28;20054;-79
2021/09/09 07:21:49;;;;;;;6.15;4.30;;;;;;;;;;5015589;28;20115;-79
2021/09/09 07:24:16;;;;;;;6.97;4.90;;;;;;;;;;5016452;28;20465;-79
2021/09/09 07:26:43;;;;;;;6.97;4.20;;;;;;;;;;5013527;28;20103;-79
2021/09/09 07:29:09;;;;;;;6.45;4.68;;;;;;;;;;5013988;28;20045;-79
2021/09/09 07:31:35;;;;;;;7.72;4.80;;;;;;;;;;5009652;28;20076;-78
2021/09/09 07:34:02;;;;;;;6.35;4.45;;;;;;;;;;5036470;28;20067;-76
2021/09/09 07:36:28;;;;;;;7.05;5.03;;;;;;;;;;5025638;28;20111;-76
2021/09/09 07:38:54;;;;;;;6.30;4.50;;;;;;;;;;5024607;28;20052;-77
2021/09/09 07:41:24;;;;;;;5.93;4.55;;;;;;;;;;5027645;28;20111;-77
2021/09/09 07:43:50;;;;;;;7.50;4.82;;;;;;;;;;5014575;28;20050;-77
2021/09/09 07:46:16;;;;;;;6.50;4.70;;;;;;;;;;5023160;28;20069;-77
2021/09/09 07:48:43;;;;;;;6.68;4.65;;;;;;;;;;5016694;28;20129;-77
2021/09/09 07:51:09;;;;;;;6.05;4.75;;;;;;;;;;5023773;28;20053;-78
2021/09/09 07:53:35;;;;;;;5.97;4.43;;;;;;;;;;5014509;28;20069;-75
2021/09/09 07:56:04;;;;;;;7.38;4.80;;;;;;;;;;5018974;28;20049;-76
2021/09/09 07:58:30;;;;;;;7.80;4.82;;;;;;;;;;5033837;28;20536;-78
2021/09/09 08:00:57;;;;;;;6.13;4.70;;;;;;;;;;5015093;28;20115;-78
2021/09/09 08:03:23;;;;;;;6.70;4.60;;;;;;;;;;5017855;28;20054;-77
2021/09/09 08:05:49;;;;;;;8.10;5.10;;;;;;;;;;5022196;28;20062;-77
2021/09/09 08:08:16;;;;;;;7.15;4.95;;;;;;;;;;5028794;28;20053;-78
2021/09/09 08:10:42;;;;;;;6.75;4.68;;;;;;;;;;5024441;28;20033;-77
2021/09/09 08:13:08;;;;;;;6.22;4.93;;;;;;;;;;5025775;28;20049;-77
2021/09/09 08:15:37;;;;;;;5.68;4.80;;;;;;;;;;5035625;28;20083;-77
2021/09/09 08:18:04;;;;;;;6.53;5.05;;;;;;;;;;5021678;28;20128;-76
2021/09/09 08:20:30;;;;;;;7.95;5.53;;;;;;;;;;5027017;28;20057;-78
2021/09/09 08:22:56;;;;;;;6.72;5.10;;;;;;;;;;5024226;28;20056;-77
2021/09/09 08:25:23;;;;;;;7.25;5.13;;;;;;;;;;5016531;28;20096;-78
2021/09/09 08:27:49;;;;;;;7.05;5.10;;;;;;;;;;5024120;28;20065;-78
2021/09/09 08:30:16;;;;;;;7.22;4.85;;;;;;;;;;5019739;28;20442;-78
2021/09/09 08:32:42;;;;;;;6.68;5.10;;;;;;;;;;5032196;28;20064;-77
2021/09/09 08:35:09;;;;;;;6.95;4.72;;;;;;;;;;5023746;28;20477;-77
2021/09/09 08:37:35;;;;;;;7.63;4.85;;;;;;;;;;5022493;28;20122;-77
2021/09/09 08:40:04;;;;;;;7.18;5.10;;;;;;;;;;5019636;28;20051;-77
2021/09/09 08:42:30;;;;;;;7.25;5.30;;;;;;;;;;5022938;28;20057;-77
2021/09/09 08:44:57;;;;;;;7.10;5.20;;;;;;;;;;5031536;28;20049;-78
2021/09/09 08:47:26;;;;;;;7.15;5.10;;;;;;;;;;5016243;28;20077;-77
2021/09/09 08:49:52;;;;;;;8.15;5.53;;;;;;;;;;5018447;28;20054;-77
2021/09/09 08:52:19;;;;;;;6.43;4.75;;;;;;;;;;5025716;28;20057;-78
2021/09/09 08:54:46;;;;;;;6.55;5.20;;;;;;;;;;5014086;28;20781;-77
2021/09/09 08:57:12;;;;;;;7.47;5.57;;;;;;;;;;5027597;28;20053;-76
2021/09/09 08:59:38;;;;;;;8.23;5.63;;;;;;;;;;5014393;28;20119;-77
2021/09/09 09:02:06;;;;;;;6.75;5.50;;;;;;;;;;5024006;28;20524;-77
2021/09/09 09:04:34;;;;;;;7.55;5.80;;;;;;;;;;5016678;28;20061;-78
2021/09/09 09:07:01;;;;;;;6.53;5.10;;;;;;;;;;5014886;28;20062;-77
2021/09/09 09:09:36;;;;;;;6.50;5.65;;;;;;;;;;5025764;28;20041;-77
2021/09/09 09:12:09;;;;;;;9.15;5.65;;;;;;;;;;5015020;28;20068;-78
2021/09/09 09:14:36;;;;;;;8.70;5.50;;;;;;;;;;5015917;28;20151;-78
2021/09/09 09:17:06;;;;;;;6.57;5.60;;;;;;;;;;5018178;28;20492;-77
2021/09/09 09:19:34;;;;;;;7.80;5.90;;;;;;;;;;5017937;28;20083;-76
2021/09/09 09:22:03;;;;;;;8.38;5.88;;;;;;;;;;5028550;28;20061;-77
2021/09/09 09:24:33;;;;;;;8.20;5.80;;;;;;;;;;5022671;28;20078;-78
2021/09/09 09:27:04;;;;;;;9.63;5.68;;;;;;;;;;5027923;28;20073;-74
2021/09/09 09:29:30;;;;;;;7.15;5.80;;;;;;;;;;5024651;28;20085;-78
2021/09/09 09:32:10;;;;;;;7.97;5.93;;;;;;;;;;5015288;28;20511;-76
2021/09/09 09:34:36;;;;;;;9.50;6.13;;;;;;;;;;5018759;28;20069;-78
2021/09/09 09:37:03;;;;;;;9.45;6.05;;;;;;;;;;5026092;28;20050;-78
2021/09/09 09:39:29;;;;;;;7.13;5.93;;;;;;;;;;5017021;28;20087;-77
2021/09/09 09:41:56;;;;;;;7.32;5.82;;;;;;;;;;5015497;28;20045;-77
2021/09/09 09:44:36;;;;;;;7.88;5.93;;;;;;;;;;5009416;28;20053;-77
2021/09/09 09:47:09;;;;;;;7.82;5.68;;;;;;;;;;5019137;28;20061;-78
2021/09/09 09:49:37;;;;;;;7.60;5.60;;;;;;;;;;5025907;28;20120;-77
2021/09/09 09:52:06;;;;;;;7.63;5.75;;;;;;;;;;5024036;28;20049;-75
2021/09/09 09:54:35;;;;;;;7.53;5.88;;;;;;;;;;5018200;28;20065;-77
2021/09/09 09:57:01;;;;;;;8.43;6.15;;;;;;;;;;5018491;28;20049;-77
2021/09/09 09:59:28;;;;;;;8.27;6.15;;;;;;;;;;5020498;28;20114;-77
2021/09/09 10:01:54;;;;;;;7.03;5.75;;;;;;;;;;5011646;28;20156;-76
2021/09/09 10:04:22;;;;;;;8.85;5.82;;;;;;;;;;5011941;28;20061;-77
2021/09/09 10:06:49;;;;;;;7.68;5.50;;;;;;;;;;5014246;28;20069;-76
2021/09/09 10:09:16;;;;;;;7.22;5.70;;;;;;;;;;5016223;28;20053;-76
2021/09/09 10:11:42;;;;;;;7.82;6.20;;;;;;;;;;5019137;28;20451;-77
2021/09/09 10:14:16;;;;;;;8.35;5.78;;;;;;;;;;5012004;28;20060;-78
2021/09/09 10:16:44;;;;;;;8.88;5.28;;;;;;;;;;5013723;28;20057;-77
2021/09/09 10:19:11;;;;;;;6.88;5.50;;;;;;;;;;5026851;28;20065;-78
2021/09/09 10:21:39;;;;;;;7.15;5.88;;;;;;;;;;5018495;28;20062;-76
2021/09/09 10:24:09;;;;;;;8.00;5.43;;;;;;;;;;5024707;28;20057;-77
2021/09/09 10:26:36;;;;;;;6.73;5.77;;;;;;;;;;5019026;28;20068;-76
2021/09/09 10:29:02;;;;;;;7.93;6.30;;;;;;;;;;5024377;28;20124;-77
2021/09/09 10:31:42;;;;;;;6.88;5.72;;;;;;;;;;5016877;28;20461;-77
2021/09/09 10:34:09;;;;;;;6.72;5.75;;;;;;;;;;5013647;28;20065;-77
2021/09/09 10:36:40;;;;;;;8.20;6.20;;;;;;;;;;5017124;28;20070;-77
2021/09/09 10:39:12;;;;;;;8.10;5.80;;;;;;;;;;5021846;28;20509;-77
2021/09/09 10:41:38;;;;;;;;;;;;;;;;;;5017227;28;20069;-77
2021/09/09 10:44:06;;;;;;;8.70;5.43;;;;;;;;;;5019876;28;19952;-76
2021/09/09 10:46:34;;;;;;;8.43;5.68;;;;;;;;;;5020775;28;20061;-76
2021/09/09 10:49:07;;;;;;;7.78;5.95;;;;;;;;;;5015876;28;20072;-77
2021/09/09 10:51:34;;;;;;;6.75;5.60;;;;;;;;;;5021915;28;20120;-77
2021/09/09 10:54:01;;;;;;;7.75;6.60;;;;;;;;;;5013734;28;20062;-77
2021/09/09 10:56:35;;;;;;;7.32;5.60;;;;;;;;;;5020310;28;20057;-77
2021/09/09 10:59:11;;;;;;;7.45;5.80;;;;;;;;;;5025014;28;20068;-77
2021/09/09 11:01:38;;;;;;;7.47;5.68;;;;;;;;;;5020381;28;20107;-76
2021/09/09 11:04:05;;;;;;;7.22;5.80;;;;;;;;;;5013700;28;20057;-78
2021/09/09 11:06:31;;;;;;;8.20;5.97;;;;;;;;;;5027264;28;20077;-78
2021/09/09 11:08:58;;;;;;;7.47;6.32;;;;;;;;;;5024909;28;20106;-78
2021/09/09 11:11:29;;;;;;;7.85;6.15;;;;;;;;;;5019080;28;20049;-79
2021/09/09 11:13:56;;;;;;;9.23;6.10;;;;;;;;;;5015882;28;20511;-79
2021/09/09 11:16:27;;;;;;;6.32;5.43;;;;;;;;;;5017782;28;20033;-78
2021/09/09 11:18:53;;;;;;;7.03;5.82;;;;;;;;;;5023267;28;20054;-78
2021/09/09 11:21:24;;;;;;;7.13;6.28;;;;;;;;;;5016987;28;20288;-78
2021/09/09 11:23:58;;;;;;;7.65;5.82;;;;;;;;;;5015686;28;20110;-78
2021/09/09 11:26:24;;;;;;;7.43;5.40;;;;;;;;;;5013649;28;20758;-78
2021/09/09 11:28:51;;;;;;;7.90;5.80;;;;;;;;;;5024214;28;20517;-77
2021/09/09 11:31:22;;;;;;;7.32;5.60;;;;;;;;;;5021681;28;20057;-79
2021/09/09 11:33:51;;;;;;;6.95;5.80;;;;;;;;;;5022684;28;20265;-77
2021/09/09 11:36:19;;;;;;;7.40;5.78;;;;;;;;;;5025733;28;20049;-77
2021/09/09 11:38:45;;;;;;;8.30;6.18;;;;;;;;;;5024554;28;21491;-78
2021/09/09 11:41:13;;;;;;;7.15;6.00;;;;;;;;;;5027093;28;20065;-79
2021/09/09 11:43:46;;;;;;;7.30;5.60;;;;;;;;;;5018215;28;20065;-78
2021/09/09 11:46:13;;;;;;;7.45;6.18;;;;;;;;;;5017874;28;20049;-77
2021/09/09 11:48:39;;;;;;;7.38;5.80;;;;;;;;;;5017045;28;20074;-77
2021/09/09 11:51:06;;;;;;;7.50;5.90;;;;;;;;;;5019206;28;20057;-78
2021/09/09 11:53:32;;;;;;;7.13;5.63;;;;;;;;;;5016558;28;20061;-78
2021/09/09 11:55:58;;;;;;;6.75;5.53;;;;;;;;;;5016916;28;20691;-79
2021/09/09 11:58:32;;;;;;;7.70;5.80;;;;;;;;;;5017274;28;20084;-78
2021/09/09 12:01:00;;;;;;;7.43;6.32;;;;;;;;;;5016471;28;20072;-79
2021/09/09 12:03:26;;;;;;;7.75;5.50;;;;;;;;;;5018122;28;20065;-77
2021/09/09 12:05:53;;;;;;;6.93;5.65;;;;;;;;;;5014316;28;20058;-77
2021/09/09 12:08:20;;;;;;;9.30;5.57;;;;;;;;;;5015365;28;20057;-77
2021/09/09 12:10:46;;;;;;;7.43;5.63;;;;;;;;;;5016558;28;20112;-77
2021/09/09 12:13:28;;;;;;;7.05;6.00;;;;;;;;;;5019845;28;20053;-79
2021/09/09 12:15:55;;;;;;;6.50;5.75;;;;;;;;;;5031285;28;20375;-77
2021/09/09 12:18:30;;;;;;;8.00;6.10;;;;;;;;;;5029961;28;20647;-77
2021/09/09 12:21:06;;;;;;;8.45;5.60;;;;;;;;;;5024588;28;20111;-78
2021/09/09 12:23:33;;;;;;;7.10;5.40;;;;;;;;;;5018152;28;20403;-78
2021/09/09 12:26:14;;;;;;;8.40;6.15;;;;;;;;;;5028388;28;20057;-78
2021/09/09 12:28:41;;;;;;;7.38;5.53;;;;;;;;;;5014444;28;20120;-78
2021/09/09 12:31:07;;;;;;;7.78;4.97;;;;;;;;;;5017828;28;20122;-78
2021/09/09 12:33:37;;;;;;;7.45;5.97;;;;;;;;;;5025618;28;20080;-78
2021/09/09 12:36:10;;;;;;;6.20;4.80;;;;;;;;;;5019812;28;20061;-79
2021/09/09 12:38:38;;;;;;;6.72;5.07;;;;;;;;;;5014507;28;20524;-77
2021/09/09 12:41:05;;;;;;;8.07;5.82;;;;;;;;;;5033128;28;20484;-78
2021/09/09 12:43:33;;;;;;;6.78;4.80;;;;;;;;;;5030113;28;20116;-78
2021/09/09 12:46:01;;;;;;;6.30;4.93;;;;;;;;;;5018634;28;20053;-78
2021/09/09 12:48:29;;;;;;;6.63;5.35;;;;;;;;;;5017126;28;20104;-78
2021/09/09 12:51:03;;;;;;;8.57;5.80;;;;;;;;;;5025909;28;20056;-79
2021/09/09 12:53:30;;;;;;;7.80;5.50;;;;;;;;;;5013242;28;20611;-78
2021/09/09 12:55:58;;;;;;;5.97;5.25;;;;;;;;;;5021851;28;20134;-77
2021/09/09 12:58:24;;;;;;;6.75;5.10;;;;;;;;;;5008113;28;20116;-78
2021/09/09 13:00:51;;;;;;;6.50;5.25;;;;;;;;;;5020076;28;20069;-78
2021/09/09 13:03:17;;;;;;;6.97;5.00;;;;;;;;;;5025531;28;20548;-76
2021/09/09 13:05:44;;;;;;;8.55;5.60;;;;;;;;;;5016971;28;20123;-77
2021/09/09 13:08:10;;;;;;;7.07;5.40;;;;;;;;;;5017328;28;20083;-77
2021/09/09 13:10:36;;;;;;;6.70;5.10;;;;;;;;;;5018621;28;20160;-78
2021/09/09 13:13:03;;;;;;;6.45;5.63;;;;;;;;;;5017662;28;20057;-77
2021/09/09 13:15:29;;;;;;;6.80;5.40;;;;;;;;;;5020232;28;20069;-77
2021/09/09 13:17:56;;;;;;;7.88;5.85;;;;;;;;;;5020932;28;20069;-77
2021/09/09 13:20:22;;;;;;;8.00;5.88;;;;;;;;;;5021916;28;20069;-77
2021/09/09 13:22:49;;;;;;;6.93;5.07;;;;;;;;;;5017992;28;20069;-78
2021/09/09 13:25:15;;;;;;;7.30;5.50;;;;;;;;;;5024368;28;20053;-78
2021/09/09 13:27:42;;;;;;;7.68;5.70;;;;;;;;;;5022169;28;20069;-78
2021/09/09 13:30:08;;;;;;;7.07;5.47;;;;;;;;;;5018174;28;20069;-78
2021/09/09 13:32:35;;;;;;;6.70;5.32;;;;;;;;;;5019434;28;20065;-77
2021/09/09 13:35:01;;;;;;;6.72;5.75;;;;;;;;;;5018223;28;20073;-77
2021/09/09 13:37:28;;;;;;;7.00;5.45;;;;;;;;;;5012932;28;20057;-78
2021/09/09 13:39:55;;;;;;;7.82;5.63;;;;;;;;;;5020100;28;20057;-78
2021/09/09 13:42:21;;;;;;;7.35;5.70;;;;;;;;;;5014314;28;20072;-78
2021/09/09 13:44:47;;;;;;;7.85;6.03;;;;;;;;;;5032618;28;20052;-78
2021/09/09 13:47:14;;;;;;;9.85;6.32;;;;;;;;;;5019649;28;20061;-78
2021/09/09 13:49:40;;;;;;;10.35;6.97;;;;;;;;;;5011582;28;20061;-78
2021/09/09 13:52:07;;;;;;;15.57;8.45;;;;;;;;;;5011471;28;20062;-77
2021/09/09 13:54:33;;;;;;;10.52;7.03;;;;;;;;;;5025614;28;20086;-78
2021/09/09 13:56:59;;;;;;;13.50;7.50;;;;;;;;;;5018305;28;20072;-78
2021/09/09 13:59:26;;;;;;;10.27;7.05;;;;;;;;;;5028125;28;20081;-78
2021/09/09 14:01:53;;;;;;;10.38;6.68;;;;;;;;;;5025388;28;20060;-78
2021/09/09 14:04:22;;;;;;;10.80;6.88;;;;;;;;;;5021265;28;20518;-77
2021/09/09 14:06:48;;;;;;;10.82;6.72;;;;;;;;;;5024941;28;20115;-77
2021/09/09 14:09:15;;;;;;;10.77;6.78;;;;;;;;;;5019831;28;20058;-77
2021/09/09 14:11:42;;;;;;;8.15;6.28;;;;;;;;;;5026748;28;20112;-78
2021/09/09 14:14:09;;;;;;;8.57;6.22;;;;;;;;;;5024062;28;20060;-77
2021/09/09 14:16:36;;;;;;;9.10;6.55;;;;;;;;;;5023139;28;20053;-77
2021/09/09 14:19:05;;;;;;;7.40;5.93;;;;;;;;;;5023069;28;20057;-78
2021/09/09 14:21:32;;;;;;;7.93;5.82;;;;;;;;;;5018672;28;20065;-78
2021/09/09 14:23:58;;;;;;;8.35;5.72;;;;;;;;;;5015547;28;20057;-78
2021/09/09 14:26:25;;;;;;;8.98;6.50;;;;;;;;;;5020597;28;20068;-79
2021/09/09 14:28:51;;;;;;;9.55;6.53;;;;;;;;;;5014311;28;20080;-79
2021/09/09 14:31:17;;;;;;;7.93;6.22;;;;;;;;;;5016038;28;20143;-79
2021/09/09 14:33:46;;;;;;;9.98;6.70;;;;;;;;;;5022085;28;20160;-78
2021/09/09 14:36:12;;;;;;;7.45;6.18;;;;;;;;;;5016319;28;20053;-78
2021/09/09 14:38:39;;;;;;;8.32;5.88;;;;;;;;;;5022404;28;20073;-79
2021/09/09 14:41:05;;;;;;;6.80;5.65;;;;;;;;;;5025710;28;20064;-77
2021/09/09 14:43:32;;;;;;;10.32;6.50;;;;;;;;;;5020483;28;20070;-76